Time;durP1;ratioP1;P1;durP2;ratioP2;P2;SDS_P1;SDS_P2;PMS_P1;PMS_P2;Temp;Humidity;BMP_temperature;BMP_pressure;BME280_temperature;BME280_humidity;BME280_pressure;Samples;Min_cycle;Max_cycle;Signal;HPM_P1;HPM_P2
2022/10/22 00:01:29;;;;;;;10.77;6.07;;;;;;;12.60;100.00;100766.84;5032274;28;20462;-90
2022/10/22 00:03:55;;;;;;;11.30;6.30;;;;;;;12.56;100.00;100771.06;5022281;28;20037;-90
2022/10/22 00:06:20;;;;;;;13.77;6.07;;;;;;;12.58;100.00;100779.84;5039554;28;20037;-90
2022/10/22 00:08:45;;;;;;;12.47;5.83;;;;;;;12.58;100.00;100781.72;5039523;28;20053;-90
2022/10/22 00:11:14;;;;;;;10.23;5.90;;;;;;;12.51;100.00;100773.63;5038747;28;20429;-91
2022/10/22 00:13:40;;;;;;;11.47;5.57;;;;;;;12.54;100.00;100784.06;5039807;28;20040;-90
2022/10/22 00:16:05;;;;;;;10.80;6.00;;;;;;;12.49;100.00;100779.28;5039131;28;20025;-91
2022/10/22 00:18:31;;;;;;;9.60;5.60;;;;;;;12.49;100.00;100779.28;5039270;28;20029;-89
2022/10/22 00:20:56;;;;;;;11.17;6.27;;;;;;;12.45;100.00;100780.81;5040044;28;20143;-90
2022/10/22 00:23:21;;;;;;;9.23;5.80;;;;;;;12.46;100.00;100779.75;5039318;28;20436;-90
2022/10/22 00:25:47;;;;;;;8.53;6.07;;;;;;;12.46;100.00;100778.94;5039373;28;20041;-90
2022/10/22 00:28:13;;;;;;;14.10;6.80;;;;;;;12.38;100.00;100762.94;5038797;28;20041;-90
2022/10/22 00:30:39;;;;;;;12.33;6.30;;;;;;;12.39;100.00;100781.72;5015861;28;20041;-89
2022/10/22 00:33:04;;;;;;;11.07;6.30;;;;;;;12.42;100.00;100775.81;5037489;28;20069;-90
2022/10/22 00:35:30;;;;;;;9.77;5.53;;;;;;;12.38;100.00;100779.22;5042694;28;20480;-90
2022/10/22 00:37:55;;;;;;;11.93;5.70;;;;;;;12.38;100.00;100773.81;5042865;28;20516;-90
2022/10/22 00:40:21;;;;;;;11.37;6.83;;;;;;;12.40;100.00;100774.38;5002551;28;20029;-90
2022/10/22 00:42:46;;;;;;;11.40;6.50;;;;;;;12.39;100.00;100780.88;5043551;28;20052;-90
2022/10/22 00:45:11;;;;;;;10.87;6.47;;;;;;;12.37;100.00;100783.00;5025064;28;20041;-89
2022/10/22 00:47:40;;;;;;;9.87;6.33;;;;;;;12.38;100.00;100785.50;5042823;28;20041;-90
2022/10/22 00:50:14;;;;;;;10.73;6.67;;;;;;;12.36;100.00;100789.47;5042464;28;20037;-90
2022/10/22 00:52:40;;;;;;;10.82;7.13;;;;;;;12.41;100.00;100778.78;5043030;28;20446;-89
2022/10/22 00:55:06;;;;;;;11.63;6.80;;;;;;;12.35;100.00;100775.06;5025855;28;20126;-91
2022/10/22 00:57:33;;;;;;;11.23;6.70;;;;;;;12.41;100.00;100787.75;5042469;28;20329;-89
2022/10/22 00:59:59;;;;;;;14.63;7.07;;;;;;;12.35;100.00;100768.78;5042928;28;20047;-90
2022/10/22 01:02:26;;;;;;;12.67;7.30;;;;;;;12.37;100.00;100777.56;5019008;28;20128;-90
2022/10/22 01:04:52;;;;;;;13.47;6.80;;;;;;;12.37;100.00;100778.38;5043247;28;20040;-89
2022/10/22 01:07:20;;;;;;;13.70;7.23;;;;;;;12.34;100.00;100776.13;5042470;28;20135;-89
2022/10/22 01:10:24;;;;;;;13.00;7.07;;;;;;;12.35;100.00;100785.09;5042698;28;20049;-90
2022/10/22 01:13:03;;;;;;;11.97;6.83;;;;;;;12.30;100.00;100773.03;5038431;28;20041;-90
2022/10/22 01:15:34;;;;;;;14.60;6.30;;;;;;;12.33;100.00;100777.19;5043348;28;21148;-89
2022/10/22 01:18:03;;;;;;;10.30;6.23;;;;;;;12.33;100.00;100769.88;5041354;28;20155;-89
2022/10/22 01:21:06;;;;;;;11.67;6.90;;;;;;;12.31;100.00;100777.41;5042689;28;20029;-89
2022/10/22 01:24:04;;;;;;;12.63;7.13;;;;;;;12.30;100.00;100767.59;5042364;28;20850;-89
2022/10/22 01:26:50;;;;;;;16.03;6.83;;;;;;;12.35;100.00;100768.78;5043108;28;20045;-90
2022/10/22 01:29:28;;;;;;;13.30;6.90;;;;;;;12.35;100.00;100774.22;5043780;28;20060;-91
2022/10/22 01:32:00;;;;;;;13.10;7.20;;;;;;;12.30;100.00;100770.31;5042951;28;20064;-90
2022/10/22 01:34:28;;;;;;;11.97;7.00;;;;;;;12.32;100.00;100775.50;5042844;28;20596;-90
2022/10/22 01:36:54;;;;;;;12.63;6.83;;;;;;;12.31;100.00;100774.69;5042311;28;20037;-90
2022/10/22 01:39:22;;;;;;;12.87;6.87;;;;;;;12.29;100.00;100774.09;5042035;28;20091;-90
2022/10/22 01:41:47;;;;;;;20.70;7.30;;;;;;;12.28;100.00;100775.16;5017985;28;20037;-90
2022/10/22 01:44:32;;;;;;;13.67;6.83;;;;;;;12.30;100.00;100778.44;5042128;28;20059;-91
2022/10/22 01:47:14;;;;;;;14.47;7.00;;;;;;;12.31;100.00;100776.59;5042421;28;20108;-90
2022/10/22 01:50:14;;;;;;;13.63;6.47;;;;;;;12.30;100.00;100774.91;5042665;28;20465;-90
2022/10/22 01:53:05;;;;;;;12.50;6.90;;;;;;;12.26;100.00;100771.81;5041821;28;20474;-89
2022/10/22 01:55:33;;;;;;;12.77;6.47;;;;;;;12.28;100.00;100763.44;5042455;28;20033;-90
2022/10/22 01:58:10;;;;;;;11.20;6.70;;;;;;;12.26;100.00;100768.28;5041397;28;20057;-89
2022/10/22 02:00:51;;;;;;;13.10;6.93;;;;;;;12.21;100.00;100774.41;5042120;28;20351;-89
2022/10/22 02:03:25;;;;;;;13.60;6.77;;;;;;;12.22;100.00;100773.31;5042126;28;20020;-89
2022/10/22 02:05:55;;;;;;;14.43;6.88;;;;;;;12.21;100.00;100771.69;5041656;28;20090;-89
2022/10/22 02:08:26;;;;;;;14.70;7.37;;;;;;;12.23;100.00;100783.13;5040783;28;20033;-89
2022/10/22 02:10:52;;;;;;;14.03;7.77;;;;;;;12.25;100.00;100781.03;5042328;28;20224;-90
2022/10/22 02:13:28;;;;;;;13.90;7.47;;;;;;;12.26;100.00;100768.28;5016591;28;20601;-90
2022/10/22 02:15:56;;;;;;;13.03;7.50;;;;;;;12.25;100.00;100770.16;5039427;28;20098;-89
2022/10/22 02:18:27;;;;;;;13.47;7.73;;;;;;;12.27;100.00;100772.66;5040640;28;20028;-90
2022/10/22 02:20:53;;;;;;;12.07;7.00;;;;;;;12.27;100.00;100776.19;5041128;28;20111;-90
2022/10/22 02:23:20;;;;;;;16.53;7.80;;;;;;;12.27;100.00;100770.75;5041454;28;20120;-91
2022/10/22 02:25:50;;;;;;;14.97;8.07;;;;;;;12.29;100.00;100765.09;5041399;28;20044;-90
2022/10/22 02:28:22;;;;;;;14.60;7.90;;;;;;;12.37;100.00;100772.94;5040870;28;20075;-89
2022/10/22 02:30:53;;;;;;;12.37;7.53;;;;;;;12.32;100.00;100770.94;5042243;28;20047;-90
2022/10/22 02:33:27;;;;;;;13.80;7.87;;;;;;;12.37;100.00;100772.13;5041183;28;20029;-90
2022/10/22 02:35:54;;;;;;;15.27;8.25;;;;;;;12.32;100.00;100768.22;5041661;28;20057;-89
2022/10/22 02:38:22;;;;;;;14.90;7.53;;;;;;;12.29;100.00;100757.81;5041739;28;20044;-88
2022/10/22 02:40:48;;;;;;;13.03;7.37;;;;;;;12.28;100.00;100769.72;5042216;28;20051;-90
2022/10/22 02:43:13;;;;;;;16.63;8.10;;;;;;;12.26;100.00;100750.06;4998495;28;20045;-89
2022/10/22 02:45:39;;;;;;;14.57;7.90;;;;;;;12.28;100.00;100764.28;5041576;28;20037;-89
2022/10/22 02:48:05;;;;;;;16.77;8.23;;;;;;;12.26;100.00;100766.38;5016602;28;20130;-88
2022/10/22 02:50:30;;;;;;;15.37;7.57;;;;;;;12.22;100.00;100767.88;5041297;28;20052;-89
2022/10/22 02:52:56;;;;;;;14.00;8.10;;;;;;;12.18;100.00;100766.66;5039682;28;20451;-89
2022/10/22 02:55:21;;;;;;;14.90;7.33;;;;;;;12.21;100.00;100778.97;5017432;28;20168;-91
2022/10/22 02:57:46;;;;;;;12.67;7.23;;;;;;;12.19;100.00;100779.22;5040589;28;20114;-91
2022/10/22 03:00:13;;;;;;;15.50;8.30;;;;;;;12.14;100.00;100774.47;5040420;28;21764;-89
2022/10/22 03:02:38;;;;;;;13.77;8.43;;;;;;;12.20;100.00;100783.59;5015131;28;20052;-89
2022/10/22 03:05:04;;;;;;;19.20;8.80;;;;;;;12.12;100.00;100781.16;5015790;28;20036;-90
2022/10/22 03:07:30;;;;;;;16.83;8.03;;;;;;;12.14;100.00;100768.19;5040647;28;20240;-89
2022/10/22 03:09:55;;;;;;;14.50;8.57;;;;;;;12.18;100.00;100780.25;5021872;28;20051;-89
2022/10/22 03:12:20;;;;;;;17.27;8.37;;;;;;;12.14;100.00;100779.88;5041701;28;20162;-90
2022/10/22 03:14:46;;;;;;;18.43;8.77;;;;;;;12.17;100.00;100784.00;5041264;28;20062;-91
2022/10/22 03:17:11;;;;;;;15.47;8.07;;;;;;;12.10;100.00;100775.97;5016803;28;20547;-89
2022/10/22 03:19:37;;;;;;;18.03;8.83;;;;;;;12.09;100.00;100777.00;5040642;28;20043;-90
2022/10/22 03:22:06;;;;;;;16.13;8.57;;;;;;;12.17;100.00;100784.00;5039786;28;20033;-90
2022/10/22 03:24:39;;;;;;;14.83;8.50;;;;;;;12.20;100.00;100783.59;5039854;28;20032;-89
2022/10/22 03:27:04;;;;;;;18.13;8.80;;;;;;;12.14;100.00;100773.59;5041108;28;20071;-90
2022/10/22 03:29:33;;;;;;;13.40;7.93;;;;;;;12.16;100.00;100782.38;5040240;28;21018;-90
2022/10/22 03:31:58;;;;;;;17.77;8.93;;;;;;;12.23;100.00;100787.75;5039779;28;20130;-89
2022/10/22 03:34:23;;;;;;;14.00;8.17;;;;;;;12.18;100.00;100785.69;5040599;28;20692;-90
2022/10/22 03:36:50;;;;;;;18.83;8.47;;;;;;;12.19;100.00;100792.78;5039315;28;20818;-90
2022/10/22 03:39:17;;;;;;;21.07;9.13;;;;;;;12.18;100.00;100793.00;5040886;28;20044;-90
2022/10/22 03:41:43;;;;;;;18.20;8.50;;;;;;;12.18;100.00;100803.88;5040094;28;20042;-90
2022/10/22 03:44:09;;;;;;;18.17;8.40;;;;;;;12.18;100.00;100809.31;5040400;28;20098;-89
2022/10/22 03:46:34;;;;;;;11.67;7.27;;;;;;;12.27;100.00;100810.69;5040976;28;20117;-91
2022/10/22 03:49:00;;;;;;;15.77;7.80;;;;;;;12.23;100.00;100804.88;5039027;28;20384;-90
2022/10/22 03:51:26;;;;;;;16.23;8.10;;;;;;;12.21;100.00;100798.84;5038451;28;20041;-90
2022/10/22 03:53:52;;;;;;;14.83;7.47;;;;;;;12.28;100.00;100813.19;5040059;28;20568;-92
2022/10/22 03:56:19;;;;;;;14.83;7.33;;;;;;;12.32;100.00;100816.25;5041108;28;20040;-90
2022/10/22 03:58:45;;;;;;;14.00;8.07;;;;;;;12.37;100.00;100823.75;5040408;28;20160;-90
2022/10/22 04:01:12;;;;;;;17.47;7.23;;;;;;;12.38;100.00;100818.09;5040419;28;20036;-89
2022/10/22 04:03:38;;;;;;;14.50;6.87;;;;;;;12.47;100.00;100818.63;5040175;28;20069;-89
2022/10/22 04:06:09;;;;;;;14.73;7.20;;;;;;;12.46;100.00;100822.41;5041292;28;21356;-91
2022/10/22 04:08:35;;;;;;;14.57;6.83;;;;;;;12.45;100.00;100821.56;5039918;28;20444;-91
2022/10/22 04:11:00;;;;;;;15.17;6.67;;;;;;;12.46;100.00;100825.13;5044580;28;20052;-91
2022/10/22 04:13:26;;;;;;;14.93;7.37;;;;;;;12.55;100.00;100826.50;5043454;28;20091;-91
2022/10/22 04:15:51;;;;;;;14.13;6.67;;;;;;;12.52;100.00;100826.94;5045018;28;20510;-92
2022/10/22 04:18:45;;;;;;;13.57;6.50;;;;;;;12.52;100.00;100829.66;5044623;28;20488;-92
2022/10/22 04:21:12;;;;;;;15.17;6.40;;;;;;;12.55;100.00;100829.22;5044300;28;20036;-92
2022/10/22 04:23:38;;;;;;;12.60;6.47;;;;;;;12.56;100.00;100830.84;5043716;28;20832;-90
2022/10/22 04:26:06;;;;;;;14.10;6.40;;;;;;;12.64;100.00;100830.56;5042274;28;20041;-92
2022/10/22 04:28:35;;;;;;;12.87;6.10;;;;;;;12.58;100.00;100834.19;5024516;28;20034;-91
2022/10/22 04:31:07;;;;;;;11.97;6.23;;;;;;;12.62;100.00;100835.41;5044075;28;20611;-92
2022/10/22 04:33:32;;;;;;;15.07;6.37;;;;;;;12.65;100.00;100834.13;5042376;28;20094;-90
2022/10/22 04:35:57;;;;;;;18.57;6.67;;;;;;;12.70;100.00;100820.69;5043681;28;20128;-87
2022/10/22 04:38:23;;;;;;;15.00;6.60;;;;;;;12.67;100.00;100823.84;5042591;28;20123;-91
2022/10/22 04:40:48;;;;;;;15.20;6.00;;;;;;;12.76;100.00;100825.22;5025366;28;20033;-88
2022/10/22 04:43:13;;;;;;;16.90;6.63;;;;;;;12.78;100.00;100833.13;5025052;28;20054;-93
2022/10/22 04:45:39;;;;;;;16.40;6.27;;;;;;;12.78;100.00;100828.56;5044518;28;20396;-94
2022/10/22 04:48:04;;;;;;;14.97;6.43;;;;;;;12.85;100.00;100828.44;5044575;28;20052;-89
2022/10/22 04:50:30;;;;;;;14.50;5.70;;;;;;;12.89;100.00;100835.13;5043961;28;20721;-91
2022/10/22 04:52:55;;;;;;;11.93;5.90;;;;;;;12.92;100.00;100839.25;5009516;28;20032;-90
2022/10/22 04:55:21;;;;;;;19.97;6.43;;;;;;;12.93;100.00;100835.47;5044685;28;20568;-91
2022/10/22 04:57:46;;;;;;;15.20;6.07;;;;;;;12.96;100.00;100837.72;5043544;28;20677;-93
2022/10/22 05:00:12;;;;;;;14.50;5.67;;;;;;;12.98;100.00;100831.00;5025995;28;20037;-91
2022/10/22 05:02:37;;;;;;;12.57;5.33;;;;;;;12.95;100.00;100828.75;5020241;28;20664;-89
2022/10/22 05:05:03;;;;;;;13.57;5.13;;;;;;;13.02;100.00;100845.00;5043417;28;20222;-90
2022/10/22 05:07:28;;;;;;;12.30;5.47;;;;;;;12.98;100.00;100850.03;5044270;28;20057;-92
2022/10/22 05:10:01;;;;;;;11.47;4.83;;;;;;;13.01;100.00;100843.31;5042353;28;20067;-92
2022/10/22 05:12:28;;;;;;;14.50;5.07;;;;;;;13.00;100.00;100853.38;5044355;28;20424;-91
2022/10/22 05:14:54;;;;;;;14.47;4.93;;;;;;;12.98;100.00;100849.22;5025629;28;20045;-91
2022/10/22 05:17:20;;;;;;;12.60;4.90;;;;;;;12.99;100.00;100851.72;5044907;28;20369;-92
2022/10/22 05:19:45;;;;;;;9.80;5.17;;;;;;;13.01;100.00;100854.19;5044295;28;20044;-93
2022/10/22 05:22:10;;;;;;;11.13;4.80;;;;;;;13.01;100.00;100851.47;5043054;28;20061;-90
2022/10/22 05:24:36;;;;;;;11.97;5.10;;;;;;;13.00;100.00;100847.09;5035287;28;20546;-91
2022/10/22 05:27:02;;;;;;;13.33;5.00;;;;;;;13.03;100.00;100854.81;5043773;28;20041;-92
2022/10/22 05:29:27;;;;;;;13.53;5.00;;;;;;;13.04;100.00;100847.47;5043922;28;20037;-92
2022/10/22 05:31:53;;;;;;;13.60;5.37;;;;;;;13.03;100.00;100852.09;5043756;28;20430;-92
2022/10/22 05:34:18;;;;;;;15.33;5.50;;;;;;;13.01;100.00;100848.75;5044059;28;20036;-92
2022/10/22 05:36:44;;;;;;;12.07;5.07;;;;;;;13.06;100.00;100848.91;5045105;28;20410;-91
2022/10/22 05:39:10;;;;;;;13.77;4.83;;;;;;;13.10;100.00;100849.28;5043530;28;20579;-93
2022/10/22 05:41:36;;;;;;;13.77;4.67;;;;;;;13.08;100.00;100848.69;5043023;28;20057;-90
2022/10/22 05:44:01;;;;;;;12.67;5.20;;;;;;;13.12;100.00;100850.72;5044599;28;20358;-92
2022/10/22 05:46:29;;;;;;;13.43;4.43;;;;;;;13.11;100.00;100850.94;5044506;28;20425;-92
2022/10/22 05:49:00;;;;;;;11.37;4.70;;;;;;;13.12;100.00;100856.16;5017982;28;20025;-92
2022/10/22 05:51:29;;;;;;;14.97;5.03;;;;;;;13.13;100.00;100867.88;5043993;28;20029;-90
2022/10/22 05:53:57;;;;;;;12.80;4.80;;;;;;;13.11;100.00;100867.25;5043926;28;20056;-93
2022/10/22 05:56:23;;;;;;;12.73;4.83;;;;;;;13.09;100.00;100869.38;5044472;28;20037;-93
2022/10/22 05:58:48;;;;;;;15.83;4.97;;;;;;;13.08;100.00;100871.28;5030674;28;20036;-91
2022/10/22 06:01:19;;;;;;;13.33;4.47;;;;;;;13.08;100.00;100879.44;4987538;28;20377;-90
2022/10/22 06:03:46;;;;;;;15.50;5.57;;;;;;;13.10;100.00;100890.09;5043044;28;20119;-92
2022/10/22 06:06:18;;;;;;;16.40;5.33;;;;;;;13.08;100.00;100884.03;5043388;28;20416;-93
2022/10/22 06:08:46;;;;;;;14.77;5.17;;;;;;;12.98;100.00;100882.69;5042193;28;20061;-93
2022/10/22 06:11:11;;;;;;;12.53;5.33;;;;;;;13.00;100.00;100888.75;5040331;28;20516;-90
2022/10/22 06:13:37;;;;;;;16.07;5.37;;;;;;;12.99;100.00;100891.69;5041130;28;20067;-90
2022/10/22 06:16:03;;;;;;;13.67;5.07;;;;;;;12.95;100.00;100899.47;5021219;28;20040;-90
2022/10/22 06:18:28;;;;;;;12.60;5.07;;;;;;;12.91;100.00;100889.28;5041079;28;20052;-91
2022/10/22 06:20:53;;;;;;;15.50;5.17;;;;;;;12.92;100.00;100907.22;5039961;28;20055;-91
2022/10/22 06:23:19;;;;;;;15.87;5.00;;;;;;;12.89;100.00;100904.97;5040832;28;20763;-90
2022/10/22 06:26:23;;;;;;;13.13;4.87;;;;;;;12.94;100.00;100908.66;5015918;28;20589;-92
2022/10/22 06:28:49;;;;;;;15.30;5.28;;;;;;;12.91;100.00;100921.91;4968490;28;20548;-91
2022/10/22 06:31:14;;;;;;;17.63;5.57;;;;;;;12.89;100.00;100913.13;4979225;28;20661;-89
2022/10/22 06:33:43;;;;;;;15.17;4.90;;;;;;;12.84;100.00;100914.63;4977866;28;21469;-91
2022/10/22 06:36:13;;;;;;;17.53;5.43;;;;;;;12.86;100.00;100927.19;4969598;28;20038;-90
2022/10/22 06:38:40;;;;;;;17.20;5.70;;;;;;;12.87;100.00;100937.00;4961713;28;20042;-92
2022/10/22 06:41:10;;;;;;;15.57;5.53;;;;;;;12.88;100.00;100942.22;4951957;28;20593;-89
2022/10/22 06:43:36;;;;;;;15.70;5.60;;;;;;;12.91;100.00;100933.59;4978901;28;20046;-90
2022/10/22 06:46:04;;;;;;;14.23;5.20;;;;;;;12.92;100.00;100940.72;4978927;28;20049;-91
2022/10/22 06:48:29;;;;;;;15.00;4.87;;;;;;;12.92;100.00;100953.47;4979476;28;20058;-90
2022/10/22 06:50:59;;;;;;;15.70;5.83;;;;;;;12.94;100.00;100949.47;4967510;28;20088;-91
2022/10/22 06:53:25;;;;;;;15.40;5.63;;;;;;;12.96;100.00;100957.38;4978002;28;20085;-89
2022/10/22 06:55:50;;;;;;;15.80;5.80;;;;;;;12.91;100.00;100957.25;4961604;28;20042;-90
2022/10/22 06:58:15;;;;;;;18.43;7.00;;;;;;;12.98;100.00;100968.88;4977372;28;20573;-88
2022/10/22 07:00:41;;;;;;;18.77;7.17;;;;;;;12.98;100.00;100971.63;5038529;28;20091;-90
2022/10/22 07:03:10;;;;;;;18.83;6.70;;;;;;;12.97;100.00;100978.94;5042144;28;20036;-91
2022/10/22 07:05:36;;;;;;;16.70;6.90;;;;;;;12.93;100.00;100972.28;5040808;28;20393;-90
2022/10/22 07:08:01;;;;;;;15.10;5.70;;;;;;;12.97;100.00;100981.66;5023369;28;20036;-89
2022/10/22 07:10:26;;;;;;;21.03;7.60;;;;;;;12.98;100.00;100980.59;5041124;28;20086;-93
2022/10/22 07:12:52;;;;;;;15.57;5.97;;;;;;;13.03;100.00;100987.25;5041296;28;20044;-91
2022/10/22 07:15:17;;;;;;;17.20;5.90;;;;;;;13.00;100.00;100983.94;5022436;28;20548;-89
2022/10/22 07:17:42;;;;;;;13.50;5.10;;;;;;;13.06;100.00;100990.34;5040988;28;20047;-92
2022/10/22 07:20:08;;;;;;;13.57;5.83;;;;;;;13.23;100.00;101003.38;5040501;28;20550;-94
2022/10/22 07:22:34;;;;;;;18.53;6.57;;;;;;;13.30;100.00;100996.81;5034051;28;20922;-90
2022/10/22 07:24:59;;;;;;;18.13;6.23;;;;;;;13.32;100.00;101002.03;5021700;28;20036;-90
2022/10/22 07:27:25;;;;;;;17.63;6.67;;;;;;;13.32;100.00;101007.47;5017334;28;20063;-90
2022/10/22 07:29:50;;;;;;;18.10;6.90;;;;;;;13.29;100.00;101002.47;5015561;28;20421;-93
2022/10/22 07:32:15;;;;;;;14.77;5.50;;;;;;;13.31;100.00;101005.78;5016129;28;20036;-91
2022/10/22 07:34:41;;;;;;;15.27;4.87;;;;;;;13.34;100.00;101014.34;5039607;28;20649;-89
2022/10/22 07:37:06;;;;;;;17.23;5.13;;;;;;;13.47;100.00;101015.28;5014536;28;20071;-90
2022/10/22 07:39:31;;;;;;;14.43;5.10;;;;;;;13.62;100.00;101017.63;5014403;28;20049;-90
2022/10/22 07:41:57;;;;;;;18.27;5.40;;;;;;;13.80;100.00;101014.03;5039032;28;20043;-89
2022/10/22 07:44:22;;;;;;;14.47;4.60;;;;;;;13.98;100.00;101027.63;5044000;28;20136;-88
2022/10/22 07:46:47;;;;;;;14.20;3.93;;;;;;;14.15;100.00;101021.53;5046443;28;20531;-91
2022/10/22 07:49:13;;;;;;;15.40;4.03;;;;;;;14.29;100.00;101020.28;5029887;28;20676;-90
2022/10/22 07:51:38;;;;;;;14.30;4.30;;;;;;;14.56;100.00;101028.03;5011609;28;20037;-89
2022/10/22 07:54:03;;;;;;;14.60;4.53;;;;;;;14.65;100.00;101026.69;5022856;28;20045;-90
2022/10/22 07:56:29;;;;;;;16.43;4.77;;;;;;;14.83;100.00;101027.66;5046690;28;20044;-90
2022/10/22 07:58:54;;;;;;;15.77;4.73;;;;;;;14.90;100.00;101012.00;5028930;28;20384;-89
2022/10/22 08:01:20;;;;;;;18.03;4.10;;;;;;;15.15;100.00;101032.75;4995469;28;20041;-90
2022/10/22 08:03:45;;;;;;;14.90;5.67;;;;;;;15.27;100.00;101049.97;5028045;28;20036;-89
2022/10/22 08:06:14;;;;;;;13.83;4.17;;;;;;;15.33;100.00;101046.28;5028811;28;20041;-92
2022/10/22 08:08:40;;;;;;;12.80;4.57;;;;;;;15.31;99.25;101048.44;5046682;28;20032;-89
2022/10/22 08:11:06;;;;;;;16.43;5.07;;;;;;;15.50;98.67;101049.13;5046718;28;20122;-88
2022/10/22 08:13:31;;;;;;;13.40;4.63;;;;;;;15.78;98.45;101054.88;5048018;28;20044;-91
2022/10/22 08:16:00;;;;;;;16.47;5.10;;;;;;;15.90;97.52;101065.78;5044148;28;20048;-89
2022/10/22 08:18:26;;;;;;;12.67;4.33;;;;;;;16.02;95.83;101061.16;5039343;28;20120;-91
2022/10/22 08:20:52;;;;;;;15.67;4.50;;;;;;;16.17;94.73;101057.88;5046720;28;20155;-91
2022/10/22 08:23:17;;;;;;;11.37;4.30;;;;;;;16.29;92.51;101061.38;5047410;28;20032;-93
2022/10/22 08:25:42;;;;;;;14.57;3.83;;;;;;;16.13;94.31;101056.69;5046148;28;20362;-90
2022/10/22 08:28:08;;;;;;;13.03;4.20;;;;;;;16.37;90.68;101063.72;5045890;28;20059;-90
2022/10/22 08:30:36;;;;;;;11.50;4.13;;;;;;;16.42;92.92;101065.72;5046997;28;20037;-89
2022/10/22 08:33:20;;;;;;;12.97;4.30;;;;;;;16.43;91.41;101072.84;5047105;28;20358;-91
2022/10/22 08:35:50;;;;;;;14.95;4.35;;;;;;;16.49;92.23;101073.75;5046653;28;20039;-91
2022/10/22 08:38:15;;;;;;;15.77;3.90;;;;;;;16.53;90.58;101077.66;5047124;28;20033;-89
2022/10/22 08:40:41;;;;;;;10.93;3.70;;;;;;;16.49;90.69;101081.97;5047153;28;20037;-92
2022/10/22 08:43:23;;;;;;;10.97;3.60;;;;;;;16.44;91.76;101090.06;5021846;28;20033;-91
2022/10/22 08:46:05;;;;;;;10.17;3.47;;;;;;;16.33;92.86;101103.56;5031832;28;20028;-89
2022/10/22 08:48:37;;;;;;;11.10;3.23;;;;;;;16.14;93.10;101102.94;5028947;28;20044;-93
2022/10/22 08:51:03;;;;;;;13.27;3.20;;;;;;;15.96;93.27;101109.38;5046155;28;20851;-91
2022/10/22 08:53:47;;;;;;;9.97;3.13;;;;;;;15.85;95.44;101108.34;5047489;28;20157;-90
2022/10/22 08:56:13;;;;;;;8.77;2.50;;;;;;;15.89;93.87;101116.88;5042705;28;20473;-90
2022/10/22 08:59:04;;;;;;;10.00;2.87;;;;;;;15.95;94.85;101118.66;5043243;28;20484;-89
2022/10/22 09:01:51;;;;;;;10.13;2.60;;;;;;;15.83;95.11;101123.34;5035763;28;20051;-91
2022/10/22 09:04:31;;;;;;;8.00;2.20;;;;;;;15.68;96.07;101121.06;5044618;28;20420;-91
2022/10/22 09:06:58;;;;;;;12.87;2.70;;;;;;;15.52;96.17;101117.97;5024205;28;20029;-91
2022/10/22 09:09:30;;;;;;;7.53;2.30;;;;;;;15.52;96.16;101122.63;5024621;28;20099;-92
2022/10/22 09:11:59;;;;;;;12.53;2.87;;;;;;;15.49;96.96;101128.53;5025170;28;20056;-91
2022/10/22 09:14:25;;;;;;;9.20;2.70;;;;;;;15.50;96.04;101131.03;5004411;28;20601;-92
2022/10/22 09:17:32;;;;;;;12.10;2.60;;;;;;;15.55;98.19;101130.31;5018585;28;20037;-89
2022/10/22 09:20:16;;;;;;;10.30;2.77;;;;;;;15.53;97.71;101129.75;5034686;28;20035;-89
2022/10/22 09:22:51;;;;;;;11.93;2.90;;;;;;;15.50;96.75;101136.50;5041488;28;20036;-87
2022/10/22 09:25:21;;;;;;;10.23;2.60;;;;;;;15.51;97.48;101140.06;5025116;28;20044;-87
2022/10/22 09:27:48;;;;;;;8.97;2.50;;;;;;;15.46;98.32;101142.66;5042127;28;20044;-90
2022/10/22 09:30:23;;;;;;;10.90;2.60;;;;;;;15.41;98.01;101148.84;5035639;28;20700;-93
2022/10/22 09:33:17;;;;;;;10.67;2.83;;;;;;;15.45;99.15;101144.56;5041305;28;20041;-90
2022/10/22 09:35:45;;;;;;;11.73;3.20;;;;;;;15.43;99.17;101162.25;5037718;28;20051;-89
2022/10/22 09:38:13;;;;;;;9.57;2.83;;;;;;;15.41;98.85;101157.03;5042970;28;20040;-89
2022/10/22 09:40:44;;;;;;;9.33;2.60;;;;;;;15.38;98.47;101165.72;5043554;28;20099;-90
2022/10/22 09:43:13;;;;;;;13.10;2.97;;;;;;;15.36;98.81;101171.38;5042421;28;20045;-88
2022/10/22 09:45:38;;;;;;;12.50;2.83;;;;;;;15.40;98.90;101168.19;5043497;28;20537;-91
2022/10/22 09:48:26;;;;;;;10.97;2.80;;;;;;;15.49;98.86;101172.22;5042312;28;20101;-88
2022/10/22 09:51:21;;;;;;;11.70;3.20;;;;;;;15.50;98.04;101171.16;5034518;28;20071;-89
2022/10/22 09:53:55;;;;;;;10.95;2.78;;;;;;;15.52;98.27;101177.22;5043239;28;20081;-89
2022/10/22 09:56:25;;;;;;;;;;;;;;;15.68;97.87;101189.34;5024542;28;20038;-92
2022/10/22 09:58:51;;;;;;;9.10;3.00;;;;;;;15.55;97.74;101195.03;5042467;28;20200;-89
2022/10/22 10:01:20;;;;;;;9.93;3.00;;;;;;;15.49;98.39;101196.78;5001252;28;20032;-88
2022/10/22 10:03:48;;;;;;;9.73;2.80;;;;;;;15.43;99.02;101201.31;5041927;28;20044;-89
2022/10/22 10:06:17;;;;;;;13.40;2.80;;;;;;;15.45;99.80;101209.25;5041395;28;20028;-88
2022/10/22 10:08:42;;;;;;;9.60;2.80;;;;;;;15.47;100.00;101210.69;5041352;28;20035;-88
2022/10/22 10:11:13;;;;;;;9.03;2.97;;;;;;;15.49;100.00;101210.44;5040394;28;20069;-89
2022/10/22 10:13:57;;;;;;;9.77;2.70;;;;;;;15.52;99.74;101229.94;5040823;28;20041;-88
2022/10/22 10:17:03;;;;;;;11.40;2.90;;;;;;;15.52;99.02;101219.00;5039869;28;20419;-90
2022/10/22 10:19:48;;;;;;;12.40;3.13;;;;;;;15.49;98.58;101227.69;5041191;28;20508;-91
2022/10/22 10:22:20;;;;;;;11.25;3.28;;;;;;;15.50;97.51;101217.56;5041671;28;20124;-90
2022/10/22 10:25:31;;;;;;;11.63;3.13;;;;;;;15.56;99.42;101221.25;5023957;28;20041;-92
2022/10/22 10:28:08;;;;;;;9.97;3.03;;;;;;;15.64;98.22;101231.84;5033410;28;20588;-91
2022/10/22 10:30:41;;;;;;;8.57;3.07;;;;;;;15.66;97.57;101226.97;5041783;28;20440;-88
2022/10/22 10:33:41;;;;;;;11.10;3.17;;;;;;;15.71;97.28;101229.84;5041601;28;20133;-88
2022/10/22 10:36:45;;;;;;;9.17;3.00;;;;;;;15.77;97.84;101226.16;5040411;28;20048;-90
2022/10/22 10:39:22;;;;;;;10.77;3.10;;;;;;;15.88;97.85;101229.16;5039125;28;20480;-90
2022/10/22 10:42:19;;;;;;;11.17;2.97;;;;;;;16.04;97.10;101234.72;5022547;28;20591;-90
2022/10/22 10:45:04;;;;;;;11.63;2.97;;;;;;;16.28;96.55;101233.84;5041823;28;20044;-91
2022/10/22 10:48:14;;;;;;;11.23;2.90;;;;;;;16.36;95.31;101239.81;5041166;28;20044;-90
2022/10/22 10:50:48;;;;;;;9.93;2.60;;;;;;;16.70;94.49;101231.75;5038232;28;20040;-88
2022/10/22 10:53:28;;;;;;;11.73;2.90;;;;;;;16.81;91.24;101243.72;5042096;28;20362;-92
2022/10/22 10:56:27;;;;;;;8.40;2.93;;;;;;;17.13;92.27;101229.53;5015633;28;20041;-86
2022/10/22 10:59:31;;;;;;;7.80;2.72;;;;;;;17.32;90.42;101238.38;5039157;28;20071;-89
2022/10/22 11:02:18;;;;;;;10.48;2.83;;;;;;;17.45;87.89;101239.97;5021472;28;20393;-91
2022/10/22 11:05:05;;;;;;;12.60;2.85;;;;;;;17.45;86.99;101248.19;5041904;28;20086;-91
2022/10/22 11:07:39;;;;;;;9.40;3.17;;;;;;;17.54;86.36;101240.38;5041046;28;20036;-89
2022/10/22 11:10:27;;;;;;;11.45;3.10;;;;;;;17.74;87.42;101242.59;5040553;28;20059;-89
2022/10/22 11:13:01;;;;;;;11.55;2.80;;;;;;;17.75;84.61;101224.25;5040440;28;20377;-92
2022/10/22 11:15:38;;;;;;;15.73;3.30;;;;;;;17.54;85.77;101240.38;5041342;28;20078;-91
2022/10/22 11:18:17;;;;;;;9.93;2.95;;;;;;;17.64;85.74;101248.75;5039957;28;20028;-86
2022/10/22 11:20:51;;;;;;;7.40;2.70;;;;;;;17.67;83.34;101237.28;5041188;28;20032;-91
2022/10/22 11:23:31;;;;;;;12.40;3.67;;;;;;;17.75;84.98;101246.16;5040068;28;20032;-90
2022/10/22 11:26:00;;;;;;;9.38;3.05;;;;;;;17.78;84.27;101245.69;5032950;28;20211;-92
2022/10/22 11:28:38;;;;;;;10.63;2.92;;;;;;;17.83;85.26;101245.78;5027660;28;20032;-90